createdAt,value
2023-05-14T00:00:46.085Z,5.30
2023-05-14T00:02:06.450Z,5.42
2023-05-14T00:03:12.972Z,5.31
2023-05-14T00:04:20.481Z,5.40
2023-05-14T00:05:26.592Z,5.28
2023-05-14T00:06:32.356Z,5.55
2023-05-14T00:07:37.750Z,5.25
2023-05-14T00:08:46.465Z,5.13
2023-05-14T00:09:51.794Z,5.41
2023-05-14T00:10:57.221Z,5.50
2023-05-14T00:12:02.680Z,5.31
2023-05-14T00:13:08.394Z,5.36
2023-05-14T00:14:16.920Z,5.36
2023-05-14T00:15:22.856Z,5.28
2023-05-14T00:16:28.858Z,5.34
2023-05-14T00:17:34.755Z,5.40
2023-05-14T00:18:40.981Z,5.46
2023-05-14T00:19:47.570Z,5.31
2023-05-14T00:20:55.162Z,5.33
2023-05-14T00:22:01.034Z,5.40
2023-05-14T00:23:06.735Z,5.40
2023-05-14T00:24:12.563Z,5.39
2023-05-14T00:25:18.555Z,5.38
2023-05-14T00:26:24.991Z,5.25
2023-05-14T00:27:31.470Z,5.13
2023-05-14T00:28:37.521Z,5.30
2023-05-14T00:29:43.520Z,5.19
2023-05-14T00:30:49.382Z,5.28
2023-05-14T00:31:55.157Z,5.33
2023-05-14T00:33:01.914Z,5.27
2023-05-14T00:34:08.144Z,5.16
2023-05-14T00:35:14.208Z,5.31
2023-05-14T00:36:20.502Z,5.23
2023-05-14T00:37:26.752Z,5.35
2023-05-14T00:38:32.222Z,5.30
2023-05-14T00:39:38.083Z,5.34
2023-05-14T00:40:46.375Z,5.31
2023-05-14T00:41:52.326Z,5.18
2023-05-14T00:42:58.367Z,5.20
2023-05-14T00:44:05.339Z,5.22
2023-05-14T00:45:12.201Z,5.20
2023-05-14T00:46:17.773Z,5.24
2023-05-14T00:47:24.038Z,5.06
2023-05-14T00:48:30.207Z,5.31
2023-05-14T00:49:35.996Z,5.29
2023-05-14T00:50:42.164Z,5.26
2023-05-14T00:51:48.637Z,5.25
2023-05-14T00:52:54.971Z,5.15
2023-05-14T00:54:00.807Z,5.22
2023-05-14T00:55:07.368Z,5.32
2023-05-14T00:56:13.307Z,5.20
2023-05-14T00:57:22.325Z,5.24
2023-05-14T00:58:28.805Z,5.10
2023-05-14T00:59:34.264Z,5.17
2023-05-14T01:00:41.322Z,5.16
2023-05-14T01:01:47.543Z,5.17
2023-05-14T01:02:53.875Z,5.09
2023-05-14T01:03:59.295Z,5.14
2023-05-14T01:05:05.584Z,5.05
2023-05-14T01:06:27.537Z,5.25
2023-05-14T01:07:58.859Z,5.24
2023-05-14T01:09:13.659Z,5.16
2023-05-14T01:10:47.311Z,5.29
2023-05-14T01:12:06.059Z,5.25
2023-05-14T01:13:34.836Z,5.19
2023-05-14T01:14:55.732Z,4.94
2023-05-14T01:16:01.696Z,5.09
2023-05-14T01:17:07.845Z,5.26
2023-05-14T01:18:15.720Z,5.13
2023-05-14T01:19:43.193Z,5.24
2023-05-14T01:20:51.580Z,5.22
2023-05-14T01:21:57.415Z,5.20
2023-05-14T01:23:03.671Z,5.10
2023-05-14T01:24:10.267Z,5.10
2023-05-14T01:25:15.954Z,5.18
2023-05-14T01:26:22.333Z,5.05
2023-05-14T01:28:07.444Z,5.11
2023-05-14T01:29:18.768Z,5.08
2023-05-14T01:30:56.169Z,5.15
2023-05-14T01:32:02.057Z,5.12
2023-05-14T01:33:11.739Z,5.13
2023-05-14T01:34:18.055Z,5.03
2023-05-14T01:35:25.141Z,5.11
2023-05-14T01:36:30.793Z,5.28
2023-05-14T01:37:36.273Z,5.08
2023-05-14T01:38:46.293Z,5.17
2023-05-14T01:39:52.834Z,5.26
2023-05-14T01:40:58.390Z,5.00
2023-05-14T01:42:04.695Z,4.77
2023-05-14T01:43:10.926Z,5.02
2023-05-14T01:44:16.638Z,5.36
2023-05-14T01:45:22.453Z,5.22
2023-05-14T01:46:32.096Z,5.15
2023-05-14T01:47:37.861Z,5.01
2023-05-14T01:48:43.279Z,4.83
2023-05-14T01:49:48.691Z,5.10
2023-05-14T01:50:55.354Z,5.10
2023-05-14T01:52:01.937Z,4.95
2023-05-14T01:53:08.477Z,4.96
2023-05-14T01:54:14.811Z,4.84
2023-05-14T01:55:20.882Z,4.84
2023-05-14T01:56:27.677Z,5.09
2023-05-14T01:57:33.416Z,5.06
2023-05-14T01:58:39.893Z,5.07
2023-05-14T01:59:46.299Z,4.97
2023-05-14T02:00:52.144Z,5.16
2023-05-14T02:01:58.058Z,4.87
2023-05-14T02:03:04.625Z,5.05
2023-05-14T02:04:10.915Z,5.09
2023-05-14T02:05:20.785Z,5.12
2023-05-14T02:06:26.698Z,5.04
2023-05-14T02:07:34.171Z,5.04
2023-05-14T02:08:40.309Z,5.06
2023-05-14T02:09:46.959Z,5.03
2023-05-14T02:10:53.302Z,4.85
2023-05-14T02:11:59.664Z,4.98
2023-05-14T02:13:06.040Z,5.08
2023-05-14T02:14:12.344Z,5.08
2023-05-14T02:15:18.187Z,4.90
2023-05-14T02:16:24.202Z,5.05
2023-05-14T02:17:30.311Z,5.02
2023-05-14T02:18:36.039Z,5.06
2023-05-14T02:19:42.272Z,5.05
2023-05-14T02:20:48.194Z,5.08
2023-05-14T02:21:54.057Z,5.06
2023-05-14T02:22:59.895Z,5.02
2023-05-14T02:24:05.536Z,5.04
2023-05-14T02:25:12.123Z,4.86
2023-05-14T02:26:18.045Z,4.89
2023-05-14T02:27:23.881Z,4.83
2023-05-14T02:28:29.712Z,4.99
2023-05-14T02:29:35.177Z,4.85
2023-05-14T02:30:40.778Z,4.84
2023-05-14T02:31:46.786Z,4.89
2023-05-14T02:32:52.336Z,4.87
2023-05-14T02:33:59.163Z,5.06
2023-05-14T02:35:04.994Z,4.91
2023-05-14T02:36:10.770Z,4.87
2023-05-14T02:37:16.584Z,4.83
2023-05-14T02:38:22.720Z,5.01
2023-05-14T02:39:28.411Z,4.79
2023-05-14T02:40:33.821Z,5.05
2023-05-14T02:41:39.851Z,4.94
2023-05-14T02:42:45.600Z,4.92
2023-05-14T02:43:51.437Z,4.98
2023-05-14T02:44:57.268Z,5.08
2023-05-14T02:46:03.235Z,4.94
2023-05-14T02:47:09.732Z,5.01
2023-05-14T02:48:16.048Z,4.88
2023-05-14T02:49:22.409Z,4.92
2023-05-14T02:50:28.164Z,5.04
2023-05-14T02:51:33.680Z,4.87
2023-05-14T02:52:40.237Z,4.95
2023-05-14T02:53:46.888Z,5.03
2023-05-14T02:54:53.134Z,4.94
2023-05-14T02:55:59.712Z,4.91
2023-05-14T02:57:06.379Z,4.85
2023-05-14T02:58:12.725Z,4.96
2023-05-14T02:59:19.055Z,4.83
2023-05-14T03:00:26.157Z,4.74
2023-05-14T03:01:32.230Z,4.79
2023-05-14T03:02:38.581Z,4.81
2023-05-14T03:03:47.908Z,4.92
2023-05-14T03:04:53.953Z,4.86
2023-05-14T03:05:59.519Z,4.91
2023-05-14T03:07:08.129Z,4.87
2023-05-14T03:08:13.736Z,4.84
2023-05-14T03:09:18.882Z,4.84
2023-05-14T03:10:24.686Z,4.84
2023-05-14T03:11:33.500Z,4.91
2023-05-14T03:12:38.834Z,4.85
2023-05-14T03:13:44.407Z,4.91
2023-05-14T03:14:50.769Z,4.84
2023-05-14T03:15:57.700Z,4.86
2023-05-14T03:17:04.681Z,4.80
2023-05-14T03:18:11.396Z,4.77
2023-05-14T03:19:17.838Z,4.80
2023-05-14T03:20:26.332Z,4.81
2023-05-14T03:21:32.665Z,4.58
2023-05-14T03:22:38.592Z,4.87
2023-05-14T03:23:44.542Z,4.84
2023-05-14T03:24:50.700Z,4.65
2023-05-14T03:25:57.458Z,4.59
2023-05-14T03:27:03.695Z,4.78
2023-05-14T03:28:10.481Z,4.90
2023-05-14T03:29:18.426Z,4.78
2023-05-14T03:30:24.632Z,4.88
2023-05-14T03:31:30.259Z,4.83
2023-05-14T03:32:36.251Z,4.79
2023-05-14T03:33:42.366Z,4.76
2023-05-14T03:34:47.928Z,4.83
2023-05-14T03:35:53.629Z,4.89
2023-05-14T03:37:00.402Z,4.83
2023-05-14T03:38:06.760Z,4.73
2023-05-14T03:39:16.104Z,4.88
2023-05-14T03:40:22.170Z,4.75
2023-05-14T03:41:28.661Z,4.76
2023-05-14T03:42:34.648Z,4.54
2023-05-14T03:43:41.725Z,4.52
2023-05-14T03:44:47.053Z,4.76
2023-05-14T03:45:53.282Z,4.59
2023-05-14T03:46:59.315Z,4.81
2023-05-14T03:48:05.872Z,4.72
2023-05-14T03:49:12.146Z,4.72
2023-05-14T03:50:18.830Z,4.61
2023-05-14T03:51:25.411Z,4.71
2023-05-14T03:52:30.667Z,4.82
2023-05-14T03:53:36.265Z,4.77
2023-05-14T03:54:42.160Z,4.62
2023-05-14T03:55:47.742Z,4.69
2023-05-14T03:56:55.398Z,4.67
2023-05-14T03:58:01.210Z,4.56
2023-05-14T03:59:06.720Z,4.41
2023-05-14T04:00:13.365Z,4.72
2023-05-14T04:01:22.040Z,4.70
2023-05-14T04:02:28.730Z,4.66
2023-05-14T04:03:35.635Z,4.87
2023-05-14T04:04:42.981Z,4.73
2023-05-14T04:05:49.662Z,4.72
2023-05-14T04:06:56.012Z,4.80
2023-05-14T04:08:02.093Z,4.62
2023-05-14T04:09:08.409Z,4.61
2023-05-14T04:10:15.181Z,4.54
2023-05-14T04:11:21.757Z,4.54
2023-05-14T04:12:27.904Z,4.38
2023-05-14T04:13:34.145Z,4.11
2023-05-14T04:14:39.796Z,4.27
2023-05-14T04:15:46.155Z,4.36
2023-05-14T04:16:52.206Z,4.28
2023-05-14T04:17:58.552Z,4.06
2023-05-14T04:19:06.453Z,3.81
2023-05-14T04:20:12.940Z,3.90
2023-05-14T04:21:19.010Z,3.99
2023-05-14T04:22:25.533Z,3.84
2023-05-14T04:23:32.142Z,3.76
2023-05-14T04:24:37.584Z,3.79
2023-05-14T04:25:43.263Z,3.63
2023-05-14T04:26:49.015Z,3.68
2023-05-14T04:27:55.034Z,3.62
2023-05-14T04:29:03.693Z,3.61
2023-05-14T04:30:10.916Z,3.49
2023-05-14T04:31:17.388Z,3.57
2023-05-14T04:32:24.023Z,3.45
2023-05-14T04:33:29.735Z,3.52
2023-05-14T04:34:35.635Z,3.46
2023-05-14T04:35:41.890Z,3.32
2023-05-14T04:36:47.721Z,3.42
2023-05-14T04:37:53.660Z,3.42
2023-05-14T04:38:59.283Z,3.19
2023-05-14T04:40:07.382Z,3.34
2023-05-14T04:41:13.626Z,3.26
2023-05-14T04:42:20.214Z,3.24
2023-05-14T04:43:26.504Z,3.21
2023-05-14T04:44:32.114Z,3.13
2023-05-14T04:45:38.111Z,2.93
2023-05-14T04:46:43.896Z,2.88
2023-05-14T04:47:49.208Z,3.00
2023-05-14T04:48:54.528Z,3.02
2023-05-14T04:50:00.440Z,2.90
2023-05-14T04:51:07.182Z,3.01
2023-05-14T04:52:13.540Z,2.89
2023-05-14T04:53:19.262Z,2.76
2023-05-14T04:54:25.282Z,2.74
2023-05-14T04:55:31.102Z,2.78
2023-05-14T04:56:36.553Z,2.69
2023-05-14T04:57:42.652Z,2.68
2023-05-14T04:58:48.078Z,2.71
2023-05-14T04:59:54.125Z,2.68
2023-05-14T05:01:00.813Z,2.55
2023-05-14T05:02:07.114Z,2.44
2023-05-14T05:03:13.328Z,2.39
2023-05-14T05:04:19.773Z,2.43
2023-05-14T05:05:26.518Z,2.45
2023-05-14T05:06:32.352Z,2.30
2023-05-14T05:07:38.018Z,2.38
2023-05-14T05:08:43.447Z,2.38
2023-05-14T05:09:48.757Z,2.34
2023-05-14T05:10:54.959Z,2.37
2023-05-14T05:12:02.182Z,2.42
2023-05-14T05:13:08.434Z,2.32
2023-05-14T05:14:14.712Z,2.23
2023-05-14T05:15:20.932Z,2.31
2023-05-14T05:16:27.467Z,2.28
2023-05-14T05:17:33.481Z,2.22
2023-05-14T05:18:39.923Z,2.10
2023-05-14T05:19:46.227Z,2.02
2023-05-14T05:20:52.008Z,2.10
2023-05-14T05:21:57.464Z,2.07
2023-05-14T05:23:03.087Z,2.10
2023-05-14T05:24:09.570Z,2.12
2023-05-14T05:25:14.830Z,2.12
2023-05-14T05:26:20.887Z,2.13
2023-05-14T05:27:27.194Z,2.05
2023-05-14T05:28:32.884Z,2.14
2023-05-14T05:29:38.867Z,2.08
2023-05-14T05:30:45.668Z,2.13
2023-05-14T05:31:51.439Z,2.05
2023-05-14T05:32:58.280Z,2.05
2023-05-14T05:34:04.505Z,1.93
2023-05-14T05:35:11.002Z,2.05
2023-05-14T05:36:17.009Z,1.98
2023-05-14T05:37:23.249Z,1.93
2023-05-14T05:38:28.808Z,1.97
2023-05-14T05:39:35.454Z,1.93
2023-05-14T05:40:41.600Z,1.86
2023-05-14T05:41:47.452Z,1.94
2023-05-14T05:42:52.813Z,1.80
2023-05-14T05:43:58.421Z,1.70
2023-05-14T05:45:04.476Z,1.75
2023-05-14T05:46:10.570Z,1.91
2023-05-14T05:47:17.763Z,1.89
2023-05-14T05:48:23.529Z,1.80
2023-05-14T05:49:29.277Z,1.86
2023-05-14T05:50:35.332Z,1.76
2023-05-14T05:51:41.569Z,1.65
2023-05-14T05:52:47.010Z,1.54
2023-05-14T05:53:53.682Z,1.65
2023-05-14T05:54:59.917Z,1.72
2023-05-14T05:56:07.209Z,1.48
2023-05-14T05:57:13.169Z,1.61
2023-05-14T05:58:20.238Z,1.73
2023-05-14T05:59:26.315Z,1.61
2023-05-14T06:00:32.134Z,1.69
2023-05-14T06:01:38.381Z,1.52
2023-05-14T06:02:46.914Z,1.61
2023-05-14T06:03:52.330Z,1.56
2023-05-14T06:04:58.021Z,1.66
2023-05-14T06:06:06.577Z,1.56
2023-05-14T06:07:14.976Z,1.47
2023-05-14T06:08:23.369Z,1.46
2023-05-14T06:09:28.810Z,1.37
2023-05-14T06:10:35.622Z,1.53
2023-05-14T06:11:41.219Z,1.57
2023-05-14T06:12:47.164Z,1.53
2023-05-14T06:13:52.721Z,1.33
2023-05-14T06:14:58.360Z,1.55
2023-05-14T06:16:04.388Z,1.54
2023-05-14T06:17:10.748Z,1.35
2023-05-14T06:18:16.796Z,1.37
2023-05-14T06:19:23.151Z,1.39
2023-05-14T06:20:28.742Z,1.47
2023-05-14T06:21:34.526Z,1.40
2023-05-14T06:22:40.037Z,1.25
2023-05-14T06:23:46.236Z,1.39
2023-05-14T06:24:52.179Z,1.50
2023-05-14T06:25:58.164Z,1.55
2023-05-14T06:27:04.274Z,1.52
2023-05-14T06:28:09.812Z,1.28
2023-05-14T06:29:16.070Z,1.36
2023-05-14T06:30:21.823Z,1.28
2023-05-14T06:31:27.968Z,1.27
2023-05-14T06:32:33.210Z,1.24
2023-05-14T06:33:39.409Z,1.28
2023-05-14T06:34:48.887Z,1.37
2023-05-14T06:35:55.227Z,1.27
2023-05-14T06:37:03.281Z,1.40
2023-05-14T06:38:09.527Z,1.24
2023-05-14T06:39:15.984Z,1.28
2023-05-14T06:40:21.853Z,1.35
2023-05-14T06:41:27.594Z,1.34
2023-05-14T06:42:33.041Z,1.39
2023-05-14T06:43:38.395Z,1.37
2023-05-14T06:44:44.762Z,1.22
2023-05-14T06:45:50.946Z,1.29
2023-05-14T06:46:56.419Z,1.19
2023-05-14T06:48:02.262Z,1.31
2023-05-14T06:49:08.595Z,1.36
2023-05-14T06:50:14.631Z,1.24
2023-05-14T06:51:20.100Z,1.11
2023-05-14T06:52:26.815Z,1.24
2023-05-14T06:53:32.579Z,1.22
2023-05-14T06:54:39.260Z,1.22
2023-05-14T06:55:45.618Z,1.11
2023-05-14T06:56:51.692Z,1.23
2023-05-14T06:57:57.823Z,1.09
2023-05-14T06:59:03.781Z,1.10
2023-05-14T07:00:10.070Z,1.08
2023-05-14T07:01:15.238Z,1.11
2023-05-14T07:02:20.959Z,1.17
2023-05-14T07:03:27.336Z,1.07
2023-05-14T07:04:33.252Z,1.10
2023-05-14T07:05:39.019Z,1.07
2023-05-14T07:06:45.170Z,1.15
2023-05-14T07:07:51.721Z,1.08
2023-05-14T07:08:57.371Z,0.96
2023-05-14T07:10:03.639Z,1.00
2023-05-14T07:11:10.137Z,1.05
2023-05-14T07:12:16.095Z,1.22
2023-05-14T07:13:21.938Z,1.08
2023-05-14T07:14:28.069Z,1.04
2023-05-14T07:15:33.906Z,1.06
2023-05-14T07:16:39.751Z,1.09
2023-05-14T07:17:45.707Z,1.11
2023-05-14T07:18:51.741Z,1.12
2023-05-14T07:19:57.723Z,1.06
2023-05-14T07:21:05.481Z,1.06
2023-05-14T07:22:11.622Z,1.03
2023-05-14T07:23:19.742Z,1.06
2023-05-14T07:24:26.847Z,1.19
2023-05-14T07:25:33.378Z,1.18
2023-05-14T07:26:39.999Z,1.06
2023-05-14T07:27:46.424Z,1.10
2023-05-14T07:28:52.186Z,1.18
2023-05-14T07:29:57.741Z,1.14
2023-05-14T07:31:03.118Z,1.01
2023-05-14T07:32:09.233Z,1.01
2023-05-14T07:33:15.634Z,1.13
2023-05-14T07:34:20.937Z,1.05
2023-05-14T07:35:26.658Z,1.05
2023-05-14T07:36:32.784Z,1.02
2023-05-14T07:37:38.763Z,1.09
2023-05-14T07:38:44.990Z,1.15
2023-05-14T07:39:51.225Z,1.04
2023-05-14T07:40:57.114Z,0.92
2023-05-14T07:42:03.368Z,0.95
2023-05-14T07:43:09.815Z,0.89
2023-05-14T07:44:15.338Z,0.89
2023-05-14T07:45:20.873Z,1.06
2023-05-14T07:46:27.551Z,0.87
2023-05-14T07:47:33.528Z,0.96
2023-05-14T07:48:39.557Z,0.89
2023-05-14T07:49:45.806Z,0.96
2023-05-14T07:50:52.148Z,0.86
2023-05-14T07:51:57.825Z,0.86
2023-05-14T07:53:03.270Z,0.88
2023-05-14T07:54:08.965Z,0.97
2023-05-14T07:55:14.309Z,0.87
2023-05-14T07:56:20.885Z,1.01
2023-05-14T07:57:26.905Z,0.97
2023-05-14T07:58:32.589Z,0.94
2023-05-14T07:59:37.996Z,0.97
2023-05-14T08:00:43.843Z,1.06
2023-05-14T08:01:49.442Z,0.95
2023-05-14T08:02:56.174Z,0.93
2023-05-14T08:04:02.801Z,0.98
2023-05-14T08:05:09.866Z,1.00
2023-05-14T08:06:16.130Z,0.98
2023-05-14T08:07:21.994Z,0.79
2023-05-14T08:08:28.495Z,0.82
2023-05-14T08:09:34.166Z,0.85
2023-05-14T08:10:39.891Z,0.97
2023-05-14T08:11:45.504Z,1.05
2023-05-14T08:12:51.391Z,0.95
2023-05-14T08:13:57.443Z,0.93
2023-05-14T08:15:03.993Z,0.88
2023-05-14T08:16:10.234Z,0.89
2023-05-14T08:17:16.431Z,0.87
2023-05-14T08:18:22.658Z,0.99
2023-05-14T08:19:29.194Z,1.00
2023-05-14T08:20:35.139Z,1.00
2023-05-14T08:21:41.315Z,1.00
2023-05-14T08:22:47.360Z,0.87
2023-05-14T08:23:53.419Z,0.93
2023-05-14T08:24:59.665Z,0.90
2023-05-14T08:26:05.732Z,0.73
2023-05-14T08:27:12.071Z,0.69
2023-05-14T08:28:17.928Z,0.51
2023-05-14T08:29:23.797Z,0.78
2023-05-14T08:30:29.982Z,0.67
2023-05-14T08:31:35.713Z,0.71
2023-05-14T08:32:41.715Z,0.58
2023-05-14T08:33:47.337Z,0.68
2023-05-14T08:34:53.462Z,0.62
2023-05-14T08:36:01.082Z,0.56
2023-05-14T08:37:07.142Z,0.71
2023-05-14T08:38:13.132Z,0.58
2023-05-14T08:39:18.391Z,0.67
2023-05-14T08:40:24.651Z,0.69
2023-05-14T08:41:30.092Z,0.66
2023-05-14T08:42:35.628Z,0.43
2023-05-14T08:44:07.135Z,0.47
2023-05-14T08:45:21.210Z,0.62
2023-05-14T08:46:27.056Z,0.62
2023-05-14T08:47:33.108Z,0.40
2023-05-14T08:48:40.115Z,0.47
2023-05-14T08:49:47.277Z,0.47
2023-05-14T08:50:53.156Z,0.56
2023-05-14T08:51:58.704Z,0.56
2023-05-14T08:53:04.866Z,0.54
2023-05-14T08:54:11.113Z,0.46
2023-05-14T08:55:16.867Z,0.41
2023-05-14T08:56:23.320Z,0.42
2023-05-14T08:57:29.452Z,0.33
2023-05-14T08:58:35.213Z,0.33
2023-05-14T08:59:41.904Z,0.52
2023-05-14T09:00:47.510Z,0.43
2023-05-14T09:01:54.927Z,0.41
2023-05-14T09:03:00.642Z,0.37
2023-05-14T09:04:08.879Z,0.46
2023-05-14T09:05:14.610Z,0.28
2023-05-14T09:06:20.794Z,0.27
2023-05-14T09:07:27.491Z,0.28
2023-05-14T09:08:33.043Z,0.28
2023-05-14T09:09:38.821Z,0.14
2023-05-14T09:10:45.020Z,0.32
2023-05-14T09:11:51.602Z,0.49
2023-05-14T09:12:57.107Z,0.26
2023-05-14T09:14:02.875Z,0.21
2023-05-14T09:15:08.610Z,0.19
2023-05-14T09:16:14.044Z,0.20
2023-05-14T09:17:20.394Z,0.16
2023-05-14T09:18:26.722Z,0.17
2023-05-14T09:19:32.916Z,0.19
2023-05-14T09:20:38.944Z,0.09
2023-05-14T09:21:45.094Z,0.17
2023-05-14T09:22:55.068Z,0.14
2023-05-14T09:24:01.605Z,0.10
2023-05-14T09:25:09.728Z,0.16
2023-05-14T09:26:19.411Z,0.24
2023-05-14T09:27:26.286Z,0.13
2023-05-14T09:28:32.259Z,0.24
2023-05-14T09:29:38.117Z,0.23
2023-05-14T09:30:44.461Z,0.11
2023-05-14T09:31:52.537Z,0.33
2023-05-14T09:32:58.058Z,0.10
2023-05-14T09:34:05.216Z,0.03
2023-05-14T09:35:18.062Z,0.10
2023-05-14T09:36:25.383Z,0.03
2023-05-14T09:37:30.811Z,0.23
2023-05-14T09:38:37.396Z,0.17
2023-05-14T09:39:43.477Z,0.13
2023-05-14T09:40:48.818Z,0.17
2023-05-14T09:41:55.309Z,0.06
2023-05-14T09:43:02.470Z,0.02
2023-05-14T09:44:08.749Z,0.07
2023-05-14T09:45:15.095Z,0.07
2023-05-14T09:46:22.620Z,0.02
2023-05-14T09:47:28.288Z,0.07
2023-05-14T09:48:33.639Z,0.03
2023-05-14T09:49:38.755Z,0.14
2023-05-14T09:50:45.586Z,0.06
2023-05-14T09:51:51.356Z,0.03
2023-05-14T09:53:00.613Z,0.01
2023-05-14T09:54:07.248Z,0.06
2023-05-14T09:55:12.888Z,0.00
2023-05-14T09:56:18.740Z,0.03
2023-05-14T09:57:25.305Z,0.07
2023-05-14T09:58:30.912Z,0.04
2023-05-14T09:59:37.472Z,0.00
2023-05-14T10:00:47.534Z,0.08
2023-05-14T10:01:53.218Z,0.10
2023-05-14T10:02:59.203Z,0.07
2023-05-14T10:04:07.687Z,0.12
2023-05-14T10:05:13.961Z,0.04
2023-05-14T10:06:20.312Z,0.02
2023-05-14T10:07:30.032Z,0.07
2023-05-14T10:08:36.988Z,0.03
2023-05-14T10:09:42.852Z,0.03
2023-05-14T10:10:49.463Z,0.01
2023-05-14T10:11:55.674Z,0.01
2023-05-14T10:13:06.178Z,0.01
2023-05-14T10:14:28.793Z,0.05
2023-05-14T10:15:51.970Z,0.03
2023-05-14T10:16:57.962Z,0.06
2023-05-14T10:18:08.671Z,0.10
2023-05-14T10:19:15.136Z,0.03
2023-05-14T10:20:20.607Z,0.00
2023-05-14T10:21:27.410Z,0.00
2023-05-14T10:22:34.561Z,0.00
2023-05-14T10:23:41.125Z,0.06
2023-05-14T10:24:48.095Z,0.01
2023-05-14T10:25:54.327Z,0.02
2023-05-14T10:27:00.109Z,0.02
2023-05-14T10:28:06.817Z,0.02
2023-05-14T10:29:13.481Z,0.06
2023-05-14T10:30:22.608Z,0.04
2023-05-14T10:31:55.474Z,0.00
2023-05-14T10:33:17.335Z,0.02
2023-05-14T10:34:47.562Z,0.01
2023-05-14T10:36:10.807Z,0.00
2023-05-14T10:37:23.527Z,0.02
2023-05-14T10:38:29.967Z,0.00
2023-05-14T10:40:10.542Z,0.00
2023-05-14T10:41:18.835Z,0.01
2023-05-14T10:42:28.012Z,0.04
2023-05-14T10:43:37.808Z,0.00
2023-05-14T10:45:08.089Z,0.04
2023-05-14T10:46:15.189Z,0.00
2023-05-14T10:47:21.356Z,0.00
2023-05-14T10:48:27.192Z,0.02
2023-05-14T10:49:42.959Z,0.01
2023-05-14T10:50:51.713Z,0.00
2023-05-14T10:51:57.661Z,0.00
2023-05-14T10:53:04.316Z,0.00
2023-05-14T10:54:10.126Z,0.00
2023-05-14T10:55:17.302Z,0.00
2023-05-14T10:56:23.568Z,0.02
2023-05-14T10:57:30.023Z,0.00
2023-05-14T10:58:40.236Z,0.00
2023-05-14T10:59:47.436Z,0.00
2023-05-14T11:00:55.285Z,0.00
2023-05-14T11:02:01.930Z,0.00
2023-05-14T11:03:08.517Z,0.03
2023-05-14T11:04:21.364Z,0.04
2023-05-14T11:05:28.149Z,0.04
2023-05-14T11:06:33.633Z,0.00
2023-05-14T11:07:40.456Z,0.00
2023-05-14T11:08:47.259Z,0.00
2023-05-14T11:09:53.138Z,0.00
2023-05-14T11:11:01.679Z,0.01
2023-05-14T11:12:07.681Z,0.01
2023-05-14T11:13:13.254Z,0.00
2023-05-14T11:14:18.426Z,0.00
2023-05-14T11:15:25.156Z,0.00
2023-05-14T11:16:33.612Z,0.00
2023-05-14T11:17:40.172Z,0.00
2023-05-14T11:18:46.276Z,0.00
2023-05-14T11:19:52.271Z,0.00
2023-05-14T11:21:02.078Z,0.00
2023-05-14T11:22:08.530Z,0.00
2023-05-14T11:23:14.789Z,0.00
2023-05-14T11:24:20.790Z,0.00
2023-05-14T11:25:26.779Z,0.00
2023-05-14T11:26:36.589Z,0.00
2023-05-14T11:27:44.154Z,0.00
2023-05-14T11:28:50.408Z,0.00
2023-05-14T11:30:01.663Z,0.00
2023-05-14T11:31:07.612Z,0.00
2023-05-14T11:32:14.136Z,0.00
2023-05-14T11:33:20.489Z,0.00
2023-05-14T11:34:26.291Z,0.00
2023-05-14T11:35:32.088Z,0.00
2023-05-14T11:36:38.114Z,0.00
2023-05-14T11:37:44.521Z,0.00
2023-05-14T11:38:52.091Z,0.00
2023-05-14T11:40:02.287Z,0.00
2023-05-14T11:41:08.236Z,0.00
2023-05-14T11:42:15.388Z,0.00
2023-05-14T11:43:24.581Z,0.01
2023-05-14T11:44:30.287Z,0.00
2023-05-14T11:45:36.812Z,0.00
2023-05-14T11:46:42.675Z,0.00
2023-05-14T11:47:48.224Z,0.00
2023-05-14T11:48:53.374Z,0.00
2023-05-14T11:49:59.144Z,0.00
2023-05-14T11:51:05.964Z,0.00
2023-05-14T11:52:14.742Z,0.00
2023-05-14T11:53:26.007Z,0.00
2023-05-14T11:54:32.035Z,0.00
2023-05-14T11:55:37.948Z,0.00
2023-05-14T11:56:44.533Z,0.00
2023-05-14T11:57:50.173Z,0.00
2023-05-14T11:58:58.694Z,0.00
2023-05-14T12:00:07.366Z,0.00
2023-05-14T12:01:14.509Z,0.00
2023-05-14T12:02:20.219Z,0.00
2023-05-14T12:03:30.321Z,0.00
2023-05-14T12:04:36.408Z,0.00
2023-05-14T12:05:46.029Z,0.00
2023-05-14T12:06:51.795Z,0.00
2023-05-14T12:07:57.330Z,0.00
2023-05-14T12:09:03.704Z,0.00
2023-05-14T12:10:10.369Z,0.00
2023-05-14T12:11:16.086Z,0.00
2023-05-14T12:12:23.401Z,0.00
2023-05-14T12:13:30.417Z,0.00
2023-05-14T12:14:42.612Z,0.00
2023-05-14T12:15:57.004Z,0.00
2023-05-14T12:17:03.539Z,0.00
2023-05-14T12:18:22.936Z,0.00
2023-05-14T12:19:31.233Z,0.00
2023-05-14T12:20:36.747Z,0.00
2023-05-14T12:21:42.768Z,0.00
2023-05-14T12:22:48.228Z,0.00
2023-05-14T12:24:02.057Z,0.00
2023-05-14T12:25:14.000Z,0.00
2023-05-14T12:26:19.378Z,0.00
2023-05-14T12:27:27.077Z,0.00
2023-05-14T12:28:33.802Z,0.00
2023-05-14T12:29:41.115Z,0.00
2023-05-14T12:30:50.524Z,0.00
2023-05-14T12:31:59.666Z,0.00
2023-05-14T12:33:05.576Z,0.00
2023-05-14T12:34:12.315Z,0.00
2023-05-14T12:35:18.735Z,0.00
2023-05-14T12:36:24.779Z,0.00
2023-05-14T12:37:31.262Z,0.00
2023-05-14T12:38:38.302Z,0.00
2023-05-14T12:39:43.577Z,0.00
2023-05-14T12:40:49.168Z,0.00
2023-05-14T12:41:54.714Z,0.00
2023-05-14T12:43:00.356Z,0.00
2023-05-14T12:44:06.907Z,0.00
2023-05-14T12:45:13.562Z,0.00
2023-05-14T12:46:19.813Z,0.00
2023-05-14T12:47:25.373Z,0.00
2023-05-14T12:48:31.370Z,0.00
2023-05-14T12:49:37.828Z,0.00
2023-05-14T12:50:44.438Z,0.00
2023-05-14T12:51:52.684Z,0.00
2023-05-14T12:53:02.660Z,0.00
2023-05-14T12:54:08.920Z,0.00
2023-05-14T12:55:14.957Z,0.00
2023-05-14T12:56:20.694Z,0.00
2023-05-14T12:57:28.567Z,0.00
2023-05-14T12:58:34.276Z,0.00
2023-05-14T12:59:39.802Z,0.00
2023-05-14T13:00:45.905Z,0.00
2023-05-14T13:01:51.846Z,0.00
2023-05-14T13:02:57.695Z,0.00
2023-05-14T13:04:04.040Z,0.00
2023-05-14T13:05:10.314Z,0.00
2023-05-14T13:06:16.749Z,0.00
2023-05-14T13:07:22.232Z,0.00
2023-05-14T13:08:27.948Z,0.00
2023-05-14T13:09:33.395Z,0.00
2023-05-14T13:10:38.925Z,0.00
2023-05-14T13:11:44.123Z,0.00
2023-05-14T13:12:51.232Z,0.00
2023-05-14T13:13:57.786Z,0.00
2023-05-14T13:15:03.840Z,0.00
2023-05-14T13:16:09.919Z,0.00
2023-05-14T13:17:15.859Z,0.00
2023-05-14T13:18:22.095Z,0.00
2023-05-14T13:19:27.841Z,0.00
2023-05-14T13:20:34.171Z,0.00
2023-05-14T13:21:40.095Z,0.00
2023-05-14T13:22:46.429Z,0.00
2023-05-14T13:23:52.627Z,0.00
2023-05-14T13:24:59.416Z,0.00
2023-05-14T13:26:05.360Z,0.00
2023-05-14T13:27:11.311Z,0.00
2023-05-14T13:28:17.823Z,0.00
2023-05-14T13:29:23.596Z,0.00
2023-05-14T13:30:30.395Z,0.00
2023-05-14T13:31:35.892Z,0.00
2023-05-14T13:32:42.282Z,0.00
2023-05-14T13:33:48.728Z,0.00
2023-05-14T13:34:54.364Z,0.00
2023-05-14T13:36:00.652Z,0.00
2023-05-14T13:37:06.662Z,0.00
2023-05-14T13:38:13.036Z,0.00
2023-05-14T13:39:23.157Z,0.00
2023-05-14T13:40:28.624Z,0.00
2023-05-14T13:41:38.455Z,0.00
2023-05-14T13:42:43.988Z,0.00
2023-05-14T13:43:49.402Z,0.00
2023-05-14T13:44:56.675Z,0.00
2023-05-14T13:46:02.850Z,0.00
2023-05-14T13:47:08.795Z,0.00
2023-05-14T13:48:15.074Z,0.00
2023-05-14T13:49:20.675Z,0.00
2023-05-14T13:50:26.228Z,0.00
2023-05-14T13:51:31.753Z,0.00
2023-05-14T13:52:39.440Z,0.00
2023-05-14T13:53:45.852Z,0.00
2023-05-14T13:54:51.851Z,0.00
2023-05-14T13:55:59.139Z,0.00
2023-05-14T13:57:05.479Z,0.00
2023-05-14T13:58:11.737Z,0.00
2023-05-14T13:59:17.466Z,0.00
2023-05-14T14:00:23.710Z,0.00
2023-05-14T14:01:31.306Z,0.00
2023-05-14T14:02:36.979Z,0.00
2023-05-14T14:03:43.124Z,0.00
2023-05-14T14:04:50.144Z,0.00
2023-05-14T14:05:55.916Z,0.00
2023-05-14T14:07:01.886Z,0.00
2023-05-14T14:08:22.077Z,0.00
2023-05-14T14:09:29.347Z,0.00
2023-05-14T14:10:34.640Z,0.00
2023-05-14T14:11:40.177Z,0.00
2023-05-14T14:12:46.298Z,0.00
2023-05-14T14:13:51.450Z,0.00
2023-05-14T14:14:57.488Z,0.00
2023-05-14T14:16:04.308Z,0.00
2023-05-14T14:17:09.921Z,0.00
2023-05-14T14:18:16.104Z,0.00
2023-05-14T14:19:21.918Z,0.00
2023-05-14T14:20:27.790Z,0.00
2023-05-14T14:21:33.273Z,0.00
2023-05-14T14:22:39.002Z,0.00
2023-05-14T14:23:45.947Z,0.00
2023-05-14T14:24:51.843Z,0.00
2023-05-14T14:25:58.590Z,0.00
2023-05-14T14:27:04.768Z,0.00
2023-05-14T14:28:11.024Z,0.00
2023-05-14T14:29:16.952Z,0.00
2023-05-14T14:30:22.918Z,0.00
2023-05-14T14:31:28.423Z,0.00
2023-05-14T14:32:33.798Z,0.00
2023-05-14T14:33:39.794Z,0.00
2023-05-14T14:34:45.779Z,0.00
2023-05-14T14:35:51.309Z,0.00
2023-05-14T14:36:56.823Z,0.00
2023-05-14T14:38:02.586Z,0.00
2023-05-14T14:39:08.587Z,0.00
2023-05-14T14:40:15.094Z,0.00
2023-05-14T14:41:21.340Z,0.00
2023-05-14T14:42:27.273Z,0.00
2023-05-14T14:43:33.036Z,0.00
2023-05-14T14:44:38.772Z,0.00
2023-05-14T14:45:48.247Z,0.00
2023-05-14T14:46:55.548Z,0.00
2023-05-14T14:48:25.654Z,0.00
2023-05-14T14:49:32.570Z,0.00
2023-05-14T14:50:39.004Z,0.00
2023-05-14T14:51:45.086Z,0.00
2023-05-14T14:52:51.388Z,0.00